createdAt,value
2018-05-06T00:00:33.491Z,0
2018-05-06T00:01:36.218Z,0
2018-05-06T00:02:38.856Z,0
2018-05-06T00:03:42.302Z,0
2018-05-06T00:04:47.650Z,0
2018-05-06T00:05:50.627Z,0
2018-05-06T00:06:54.381Z,0
2018-05-06T00:07:56.740Z,0
2018-05-06T00:09:00.840Z,0
2018-05-06T00:10:02.727Z,0
2018-05-06T00:11:04.603Z,0
2018-05-06T00:12:06.930Z,0
2018-05-06T00:13:10.085Z,0
2018-05-06T00:14:11.477Z,0
2018-05-06T00:15:14.554Z,0
2018-05-06T00:16:18.090Z,0
2018-05-06T00:17:21.736Z,0
2018-05-06T00:18:24.163Z,0
2018-05-06T00:19:27.507Z,0
2018-05-06T00:20:30.340Z,0
2018-05-06T00:21:33.473Z,0
2018-05-06T00:22:35.103Z,0
2018-05-06T00:23:37.115Z,0
2018-05-06T00:24:39.278Z,0
2018-05-06T00:25:42.821Z,0
2018-05-06T00:26:48.053Z,0
2018-05-06T00:27:51.737Z,0
2018-05-06T00:28:56.596Z,0
2018-05-06T00:29:57.916Z,0
2018-05-06T00:31:01.743Z,0
2018-05-06T00:32:05.627Z,0
2018-05-06T00:33:07.992Z,0
2018-05-06T00:34:12.930Z,0
2018-05-06T00:35:20.808Z,0
2018-05-06T00:36:25.008Z,0
2018-05-06T00:37:27.412Z,0
2018-05-06T00:38:30.106Z,0
2018-05-06T00:39:34.196Z,0
2018-05-06T00:40:38.682Z,0
2018-05-06T00:41:42.487Z,0
2018-05-06T00:42:47.184Z,0
2018-05-06T00:43:50.506Z,0
2018-05-06T00:44:54.227Z,0
2018-05-06T00:45:57.163Z,0
2018-05-06T00:47:03.713Z,0
2018-05-06T00:48:08.567Z,0
2018-05-06T00:49:13.397Z,0
2018-05-06T00:50:16.016Z,0
2018-05-06T00:51:20.699Z,0
2018-05-06T00:52:29.061Z,0
2018-05-06T00:53:35.449Z,0
2018-05-06T00:54:38.347Z,0
2018-05-06T00:55:45.446Z,0
2018-05-06T00:56:49.428Z,0
2018-05-06T00:57:52.155Z,0
2018-05-06T00:58:54.348Z,0
2018-05-06T00:59:57.794Z,0
2018-05-06T01:01:00.201Z,0
2018-05-06T01:02:02.736Z,0
2018-05-06T01:03:06.321Z,0
2018-05-06T01:04:07.652Z,0
2018-05-06T08:40:51.714Z,125
2018-05-06T08:41:53.109Z,120
2018-05-06T08:42:54.497Z,115
2018-05-06T08:43:55.908Z,115
2018-05-06T08:44:57.304Z,115
2018-05-06T08:45:58.690Z,115
2018-05-06T08:47:00.118Z,105
2018-05-06T08:48:01.513Z,110
2018-05-06T08:49:02.926Z,105
2018-05-06T08:50:04.322Z,110
2018-05-06T08:51:05.727Z,110
2018-05-06T08:52:07.149Z,105
2018-05-06T08:53:08.572Z,105
2018-05-06T08:54:09.963Z,105
2018-05-06T08:55:11.363Z,100
2018-05-06T08:56:12.756Z,100
2018-05-06T08:57:14.186Z,105
2018-05-06T08:58:15.589Z,100
2018-05-06T08:59:17.001Z,105
2018-05-06T09:00:18.398Z,110
2018-05-06T09:01:19.798Z,110
2018-05-06T09:02:21.205Z,110
2018-05-06T09:03:22.619Z,110
2018-05-06T09:04:24.021Z,105
2018-05-06T09:05:25.414Z,110
2018-05-06T09:06:26.807Z,100
2018-05-06T09:07:28.207Z,105
2018-05-06T09:08:29.615Z,110
2018-05-06T09:09:31.016Z,110
2018-05-06T09:10:32.407Z,110
2018-05-06T09:11:33.804Z,105
2018-05-06T09:12:35.205Z,100
2018-05-06T09:13:36.608Z,100
2018-05-06T09:14:38.015Z,95
2018-05-06T09:15:39.412Z,100
2018-05-06T09:16:40.795Z,100
2018-05-06T09:17:42.206Z,105
2018-05-06T09:18:43.604Z,55
2018-05-06T09:19:45.018Z,65
2018-05-06T09:20:46.423Z,100
2018-05-06T09:21:47.823Z,110
2018-05-06T09:22:49.238Z,105
2018-05-06T09:23:50.620Z,105
2018-05-06T09:24:52.025Z,100
2018-05-06T09:25:53.423Z,105
2018-05-06T09:26:54.968Z,120
2018-05-06T09:27:56.375Z,110
2018-05-06T09:28:57.771Z,110
2018-05-06T09:29:59.191Z,100
2018-05-06T09:31:00.655Z,100
2018-05-06T09:32:02.057Z,105
2018-05-06T09:33:03.460Z,115
2018-05-06T09:34:04.871Z,120
2018-05-06T09:35:06.261Z,110
2018-05-06T09:36:07.666Z,115
2018-05-06T09:37:09.066Z,120
2018-05-06T09:38:10.464Z,120
2018-05-06T09:39:11.885Z,120
2018-05-06T09:40:13.278Z,115
2018-05-06T09:41:14.696Z,125
2018-05-06T09:42:16.098Z,160
2018-05-06T09:43:17.536Z,895
2018-05-06T09:44:18.968Z,1515
2018-05-06T09:45:21.361Z,2380
2018-05-06T09:46:22.756Z,2460
2018-05-06T09:47:25.257Z,2475
2018-05-06T09:48:27.884Z,2475
2018-05-06T09:49:29.756Z,2460
2018-05-06T09:50:31.337Z,2415
2018-05-06T09:51:32.997Z,2405
2018-05-06T09:52:34.825Z,2385
2018-05-06T09:53:36.210Z,2375
2018-05-06T09:54:37.597Z,2340
2018-05-06T09:55:39.038Z,2310
2018-05-06T09:56:40.454Z,2300
2018-05-06T09:57:41.849Z,2285
2018-05-06T09:58:43.259Z,2315
2018-05-06T09:59:44.667Z,2335
2018-05-06T10:00:46.068Z,2335
2018-05-06T10:01:47.477Z,2310
2018-05-06T10:02:48.875Z,2270
2018-05-06T10:03:50.296Z,2250
2018-05-06T10:04:51.695Z,2225
2018-05-06T10:05:53.132Z,2190
2018-05-06T10:06:54.534Z,1705
2018-05-06T10:07:55.944Z,975
2018-05-06T10:08:57.356Z,395
2018-05-06T10:09:58.760Z,210
2018-05-06T10:11:00.180Z,250
2018-05-06T10:12:01.580Z,260
2018-05-06T10:13:02.980Z,220
2018-05-06T10:14:04.390Z,240
2018-05-06T10:15:05.795Z,210
2018-05-06T10:16:07.202Z,175
2018-05-06T10:17:08.602Z,95
2018-05-06T10:18:10.009Z,95
2018-05-06T10:19:11.441Z,95
2018-05-06T10:20:12.845Z,95
2018-05-06T10:21:14.247Z,95
2018-05-06T10:22:15.648Z,95
2018-05-06T10:23:17.053Z,95
2018-05-06T10:24:18.458Z,95
2018-05-06T10:25:19.884Z,95
2018-05-06T10:26:21.298Z,95
2018-05-06T10:27:22.678Z,95
2018-05-06T10:28:24.077Z,90
2018-05-06T10:29:25.588Z,90
2018-05-06T10:30:26.988Z,90
2018-05-06T10:31:28.390Z,90
2018-05-06T10:32:29.810Z,90
2018-05-06T10:33:31.218Z,90
2018-05-06T10:34:32.628Z,90
2018-05-06T10:35:34.024Z,90
2018-05-06T10:36:35.428Z,90
2018-05-06T10:37:36.832Z,90
2018-05-06T10:38:38.235Z,90
2018-05-06T10:39:39.647Z,90
2018-05-06T10:40:41.776Z,90
2018-05-06T10:41:43.198Z,90
2018-05-06T10:42:44.597Z,90
2018-05-06T10:43:45.987Z,90
2018-05-06T10:44:47.407Z,90
2018-05-06T10:45:48.790Z,90
2018-05-06T10:46:50.202Z,95
2018-05-06T10:47:51.597Z,180
2018-05-06T10:48:53.677Z,205
2018-05-06T10:49:55.074Z,205
2018-05-06T10:50:56.471Z,205
2018-05-06T10:51:57.875Z,195
2018-05-06T10:52:59.281Z,180
2018-05-06T10:54:00.695Z,185
2018-05-06T10:55:02.096Z,180
2018-05-06T10:56:03.547Z,65
2018-05-06T10:57:04.889Z,65
2018-05-06T10:58:06.300Z,240
2018-05-06T10:59:07.701Z,245
2018-05-06T11:00:09.092Z,220
2018-05-06T11:01:10.505Z,310
2018-05-06T11:02:11.924Z,985
2018-05-06T11:03:13.348Z,1815
2018-05-06T11:04:14.764Z,2240
2018-05-06T11:05:16.167Z,2185
2018-05-06T11:06:17.574Z,2150
2018-05-06T11:07:18.965Z,2140
2018-05-06T11:08:20.376Z,2145
2018-05-06T11:09:21.779Z,2150
2018-05-06T11:10:23.245Z,2190
2018-05-06T11:11:24.596Z,2235
2018-05-06T11:12:25.996Z,110
2018-05-06T11:13:27.402Z,2295
2018-05-06T11:14:28.804Z,2345
2018-05-06T11:15:30.205Z,2425
2018-05-06T11:16:31.614Z,2490
2018-05-06T11:17:33.013Z,2510
2018-05-06T11:18:34.407Z,2480
2018-05-06T11:19:35.814Z,2440
2018-05-06T11:20:37.215Z,2390
2018-05-06T11:21:38.637Z,2330
2018-05-06T11:22:40.053Z,2265
2018-05-06T11:23:41.459Z,2230
2018-05-06T11:24:42.825Z,2220
2018-05-06T11:25:44.223Z,2245
2018-05-06T11:26:45.630Z,2315
2018-05-06T11:27:47.051Z,2390
2018-05-06T11:28:48.446Z,2440
2018-05-06T11:29:49.849Z,2465
2018-05-06T11:30:51.268Z,2475
2018-05-06T11:31:52.674Z,2460
2018-05-06T11:32:54.073Z,2410
2018-05-06T11:33:55.488Z,2335
2018-05-06T11:34:56.912Z,2305
2018-05-06T11:35:58.331Z,2305
2018-05-06T11:36:59.729Z,2335
2018-05-06T11:38:01.128Z,2385
2018-05-06T11:39:02.557Z,2445
2018-05-06T11:40:03.948Z,2480
2018-05-06T11:41:05.456Z,2495
2018-05-06T11:42:06.722Z,2525
2018-05-06T11:43:08.120Z,2520
2018-05-06T11:44:09.536Z,2510
2018-05-06T11:45:10.943Z,2480
2018-05-06T11:46:13.249Z,2390
2018-05-06T11:47:14.657Z,2255
2018-05-06T11:48:16.051Z,2120
2018-05-06T11:49:17.476Z,1955
2018-05-06T11:50:18.893Z,1795
2018-05-06T11:51:20.303Z,1645
2018-05-06T11:52:21.706Z,1525
2018-05-06T11:53:23.108Z,1455
2018-05-06T11:54:24.522Z,1500
2018-05-06T11:55:25.925Z,1645
2018-05-06T11:56:27.319Z,1850
2018-05-06T11:57:28.722Z,2085
2018-05-06T11:58:30.124Z,2300
2018-05-06T11:59:31.546Z,2470
2018-05-06T12:00:32.946Z,2605
2018-05-06T12:01:34.355Z,2620
2018-05-06T12:02:35.757Z,2600
2018-05-06T12:03:37.165Z,2550
2018-05-06T12:04:38.567Z,2505
2018-05-06T12:05:39.963Z,2505
2018-05-06T12:06:41.365Z,2515
2018-05-06T12:07:42.773Z,2290
2018-05-06T12:08:44.173Z,1605
2018-05-06T12:09:45.577Z,775
2018-05-06T12:10:46.975Z,160
2018-05-06T12:11:48.376Z,90
2018-05-06T12:12:49.769Z,90
2018-05-06T12:13:51.186Z,90
2018-05-06T12:14:52.587Z,90
2018-05-06T12:15:54.034Z,90
2018-05-06T12:16:55.406Z,90
2018-05-06T12:17:56.858Z,100
2018-05-06T12:18:58.208Z,105
2018-05-06T12:19:59.610Z,105
2018-05-06T12:21:01.020Z,100
2018-05-06T12:22:02.411Z,95
2018-05-06T12:23:03.814Z,95
2018-05-06T12:24:05.294Z,90
2018-05-06T12:25:06.616Z,90
2018-05-06T12:26:08.009Z,80
2018-05-06T12:27:09.420Z,80
2018-05-06T12:28:10.823Z,75
2018-05-06T12:29:12.232Z,75
2018-05-06T12:30:13.634Z,75
2018-05-06T12:31:15.041Z,75
2018-05-06T12:32:16.437Z,75
2018-05-06T12:33:17.835Z,75
2018-05-06T12:34:19.256Z,75
2018-05-06T12:35:20.652Z,75
2018-05-06T12:36:22.060Z,75
2018-05-06T12:37:23.452Z,80
2018-05-06T12:38:24.856Z,85
2018-05-06T12:39:26.266Z,85
2018-05-06T12:40:27.661Z,85
2018-05-06T12:41:29.061Z,85
2018-05-06T12:42:30.460Z,85
2018-05-06T12:43:31.927Z,85
2018-05-06T12:44:33.260Z,85
2018-05-06T12:45:34.678Z,85
2018-05-06T12:46:36.068Z,80
2018-05-06T12:47:37.484Z,80
2018-05-06T12:48:38.877Z,80
2018-05-06T12:49:40.274Z,80
2018-05-06T12:50:41.678Z,75
2018-05-06T12:51:43.096Z,75
2018-05-06T12:52:44.494Z,75
2018-05-06T12:53:45.901Z,75
2018-05-06T12:54:47.305Z,75
2018-05-06T12:55:48.707Z,75
2018-05-06T12:56:50.109Z,75
2018-05-06T12:57:51.493Z,75
2018-05-06T12:58:52.897Z,75
2018-05-06T12:59:54.313Z,75
2018-05-06T13:00:55.713Z,75
2018-05-06T13:01:57.117Z,75
2018-05-06T13:02:58.518Z,75
2018-05-06T13:03:59.924Z,75
2018-05-06T13:05:01.338Z,75
2018-05-06T13:06:02.733Z,75
2018-05-06T13:07:04.148Z,70
2018-05-06T13:08:05.528Z,70
2018-05-06T13:09:06.930Z,70
2018-05-06T13:10:08.332Z,70
2018-05-06T13:11:09.738Z,70
2018-05-06T13:12:11.136Z,70
2018-05-06T13:13:12.558Z,70
2018-05-06T13:14:13.963Z,70
2018-05-06T13:15:15.357Z,70
2018-05-06T13:16:16.762Z,70
2018-05-06T13:17:18.156Z,70
2018-05-06T13:18:19.557Z,70
2018-05-06T13:19:20.960Z,70
2018-05-06T13:20:22.362Z,70
2018-05-06T13:21:23.769Z,65
2018-05-06T13:22:25.160Z,65
2018-05-06T13:23:26.560Z,65
2018-05-06T13:24:27.952Z,60
2018-05-06T13:25:29.377Z,65
2018-05-06T13:26:30.784Z,65
2018-05-06T13:27:32.189Z,65
2018-05-06T13:28:33.590Z,60
2018-05-06T13:29:34.989Z,65
2018-05-06T13:30:36.397Z,55
2018-05-06T13:31:37.801Z,55
2018-05-06T13:32:39.201Z,60
2018-05-06T13:33:40.596Z,55
2018-05-06T13:34:42.022Z,55
2018-05-06T13:35:43.404Z,50
2018-05-06T13:36:44.800Z,50
2018-05-06T13:37:46.206Z,50
2018-05-06T13:38:47.614Z,55
2018-05-06T13:39:49.023Z,55
2018-05-06T13:40:50.406Z,55
2018-05-06T13:41:51.802Z,50
2018-05-06T13:42:53.577Z,50
2018-05-06T13:43:55.014Z,50
2018-05-06T13:44:56.395Z,60
2018-05-06T13:45:57.808Z,50
2018-05-06T13:46:59.201Z,50
2018-05-06T13:48:00.611Z,50
2018-05-06T13:49:02.006Z,50
2018-05-06T13:50:03.477Z,50
2018-05-06T13:51:05.442Z,45
2018-05-06T13:52:06.831Z,45
2018-05-06T13:53:08.319Z,45
2018-05-06T13:54:09.718Z,45
2018-05-06T13:55:11.112Z,45
2018-05-06T13:56:12.522Z,50
2018-05-06T13:57:13.917Z,50
2018-05-06T13:58:15.325Z,50
2018-05-06T13:59:16.740Z,50
2018-05-06T14:00:18.140Z,50
2018-05-06T14:01:19.527Z,50
2018-05-06T14:02:20.923Z,50
2018-05-06T14:03:22.310Z,50
2018-05-06T14:04:23.715Z,50
2018-05-06T14:05:25.108Z,50
2018-05-06T14:06:26.504Z,50
2018-05-06T14:07:27.916Z,50
2018-05-06T14:08:29.299Z,50
2018-05-06T14:09:30.711Z,50
2018-05-06T14:10:32.117Z,50
2018-05-06T14:11:33.516Z,50
2018-05-06T14:12:34.913Z,50
2018-05-06T14:13:36.316Z,50
2018-05-06T14:14:37.702Z,50
2018-05-06T14:15:39.099Z,50
2018-05-06T14:16:40.511Z,50
2018-05-06T14:17:41.909Z,50
2018-05-06T14:18:43.314Z,50
2018-05-06T14:19:44.718Z,45
2018-05-06T14:20:46.118Z,45
2018-05-06T14:21:47.549Z,45
2018-05-06T14:22:48.923Z,45
2018-05-06T14:23:50.315Z,45
2018-05-06T14:24:51.723Z,45
2018-05-06T14:25:54.045Z,45
2018-05-06T14:26:55.439Z,45
2018-05-06T14:27:56.844Z,45
2018-05-06T14:28:58.246Z,45
2018-05-06T14:29:59.669Z,45
2018-05-06T14:31:01.042Z,45
2018-05-06T14:32:02.434Z,45
2018-05-06T14:33:03.828Z,45
2018-05-06T14:34:05.222Z,45
2018-05-06T14:35:06.617Z,45
2018-05-06T14:36:08.023Z,45
2018-05-06T14:37:09.422Z,45
2018-05-06T14:38:10.823Z,45
2018-05-06T14:39:12.221Z,45
2018-05-06T14:40:13.621Z,45
2018-05-06T14:41:15.023Z,45
2018-05-06T14:42:16.426Z,45
2018-05-06T14:43:17.818Z,45
2018-05-06T14:44:19.213Z,45
2018-05-06T14:45:20.606Z,45
2018-05-06T14:46:22.014Z,45
2018-05-06T14:47:23.396Z,45
2018-05-06T14:48:24.830Z,45
2018-05-06T14:49:26.191Z,45
2018-05-06T14:50:27.589Z,45
2018-05-06T14:51:28.992Z,45
2018-05-06T14:52:30.393Z,45
2018-05-06T14:53:31.800Z,45
2018-05-06T14:54:33.205Z,45
2018-05-06T14:55:34.605Z,45
2018-05-06T14:56:36.006Z,45
2018-05-06T14:57:37.395Z,45
2018-05-06T14:58:38.797Z,45
2018-05-06T14:59:40.179Z,45
2018-05-06T15:00:41.573Z,45
2018-05-06T15:01:42.967Z,40
2018-05-06T15:02:44.914Z,40
2018-05-06T15:03:46.394Z,40
2018-05-06T15:04:47.682Z,40
2018-05-06T15:05:49.068Z,40
2018-05-06T15:06:50.460Z,40
2018-05-06T15:07:51.939Z,40
2018-05-06T15:08:53.255Z,40
2018-05-06T15:09:54.650Z,40
2018-05-06T15:10:56.916Z,40
2018-05-06T15:11:58.095Z,40
2018-05-06T15:12:59.490Z,40
2018-05-06T15:14:00.877Z,40
2018-05-06T15:15:02.283Z,40
2018-05-06T15:16:03.677Z,40
2018-05-06T15:17:05.082Z,40
2018-05-06T15:18:06.485Z,40
2018-05-06T15:19:07.887Z,40
2018-05-06T15:20:09.287Z,40
2018-05-06T15:21:10.672Z,40
2018-05-06T15:22:12.080Z,40
2018-05-06T15:23:13.469Z,40
2018-05-06T15:24:14.873Z,40
2018-05-06T15:25:16.264Z,40
2018-05-06T15:26:17.671Z,40
2018-05-06T15:27:19.778Z,40
2018-05-06T15:28:21.172Z,40
2018-05-06T15:29:22.572Z,40
2018-05-06T15:30:23.971Z,40
2018-05-06T15:31:25.373Z,40
2018-05-06T15:32:26.776Z,40
2018-05-06T15:33:28.164Z,40
2018-05-06T15:34:29.556Z,40
2018-05-06T15:35:30.943Z,40
2018-05-06T15:36:32.341Z,40
2018-05-06T15:37:33.727Z,40
2018-05-06T15:38:35.135Z,40
2018-05-06T15:39:36.530Z,40
2018-05-06T15:40:37.931Z,40
2018-05-06T15:41:39.315Z,40
2018-05-06T15:42:40.723Z,40
2018-05-06T15:43:42.122Z,40
2018-05-06T15:44:43.519Z,40
2018-05-06T15:45:44.936Z,35
2018-05-06T15:46:46.341Z,35
2018-05-06T15:47:47.739Z,35
2018-05-06T15:48:49.191Z,35
2018-05-06T15:49:50.582Z,35
2018-05-06T15:50:51.965Z,35
2018-05-06T15:51:53.383Z,35
2018-05-06T15:52:55.521Z,35
2018-05-06T15:53:56.929Z,35
2018-05-06T15:54:58.326Z,35
2018-05-06T15:55:59.727Z,35
2018-05-06T15:57:01.112Z,35
2018-05-06T15:58:02.506Z,35
2018-05-06T15:59:03.905Z,35
2018-05-06T16:00:05.310Z,35
2018-05-06T16:01:06.707Z,35
2018-05-06T16:02:08.089Z,35
2018-05-06T16:03:09.479Z,35
2018-05-06T16:04:10.878Z,35
2018-05-06T16:05:12.261Z,35
2018-05-06T16:06:13.657Z,35
2018-05-06T16:07:15.993Z,35
2018-05-06T16:08:17.395Z,35
2018-05-06T16:09:18.784Z,35
2018-05-06T16:10:20.180Z,35
2018-05-06T16:11:21.577Z,35
2018-05-06T16:12:22.963Z,35
2018-05-06T16:13:24.351Z,35
2018-05-06T16:14:25.749Z,35
2018-05-06T16:15:27.137Z,35
2018-05-06T16:16:28.533Z,35
2018-05-06T16:17:29.943Z,35
2018-05-06T16:18:31.318Z,35
2018-05-06T16:19:32.715Z,35
2018-05-06T16:20:34.138Z,35
2018-05-06T16:21:36.194Z,35
2018-05-06T16:22:37.624Z,35
2018-05-06T16:23:38.972Z,35
2018-05-06T16:24:40.369Z,35
2018-05-06T16:25:41.799Z,35
2018-05-06T16:26:43.218Z,35
2018-05-06T16:27:44.588Z,35
2018-05-06T16:28:45.984Z,35
2018-05-06T16:29:47.369Z,35
2018-05-06T16:30:48.771Z,35
2018-05-06T16:31:50.184Z,35
2018-05-06T16:32:51.591Z,35
2018-05-06T16:33:53.023Z,35
2018-05-06T16:34:54.410Z,35
2018-05-06T16:35:55.806Z,30
2018-05-06T16:36:57.221Z,30
2018-05-06T16:37:58.657Z,30
2018-05-06T16:39:00.007Z,30
2018-05-06T16:40:01.402Z,30
2018-05-06T16:41:02.805Z,30
2018-05-06T16:42:04.204Z,30
2018-05-06T16:43:05.598Z,30
2018-05-06T16:44:06.991Z,30
2018-05-06T16:45:08.394Z,30
2018-05-06T16:46:10.528Z,30
2018-05-06T16:47:11.924Z,30
2018-05-06T16:48:13.320Z,30
2018-05-06T16:49:14.680Z,30
2018-05-06T16:50:16.068Z,30
2018-05-06T16:51:17.422Z,30
2018-05-06T16:52:18.776Z,30
2018-05-06T16:53:20.174Z,30
2018-05-06T16:54:21.572Z,30
2018-05-06T16:55:22.978Z,30
2018-05-06T16:56:24.371Z,30
2018-05-06T16:57:25.840Z,30
2018-05-06T16:58:27.109Z,30
2018-05-06T16:59:28.507Z,30
2018-05-06T17:00:29.913Z,30
2018-05-06T17:01:31.309Z,30
2018-05-06T17:02:32.697Z,30
2018-05-06T17:03:34.090Z,30
2018-05-06T17:04:35.489Z,30
2018-05-06T17:05:36.882Z,30
2018-05-06T17:06:38.277Z,30
2018-05-06T17:07:39.665Z,30
2018-05-06T17:08:41.056Z,30
2018-05-06T17:09:42.474Z,30
2018-05-06T17:10:43.881Z,30
2018-05-06T17:11:45.273Z,25
2018-05-06T17:12:46.707Z,25
2018-05-06T17:13:48.068Z,25
2018-05-06T17:14:49.462Z,25
2018-05-06T17:15:50.885Z,25
2018-05-06T17:16:52.276Z,25
2018-05-06T17:17:53.624Z,25
2018-05-06T17:18:55.031Z,25
2018-05-06T17:19:56.442Z,25
2018-05-06T17:20:57.844Z,25
2018-05-06T17:21:59.262Z,25
2018-05-06T17:23:01.176Z,25
2018-05-06T17:24:02.560Z,25
2018-05-06T17:25:04.752Z,25
2018-05-06T17:26:06.152Z,25
2018-05-06T17:27:07.583Z,25
2018-05-06T17:28:08.996Z,25
2018-05-06T17:29:10.398Z,25
2018-05-06T17:30:11.809Z,25
2018-05-06T17:31:13.269Z,25
2018-05-06T17:32:14.711Z,25
2018-05-06T17:33:16.117Z,25
2018-05-06T17:34:17.522Z,20
2018-05-06T17:35:18.901Z,20
2018-05-06T17:36:20.298Z,20
2018-05-06T17:37:21.713Z,20
2018-05-06T17:38:23.100Z,20
2018-05-06T17:39:24.496Z,20
2018-05-06T17:40:25.899Z,20
2018-05-06T17:41:27.877Z,20
2018-05-06T17:42:29.277Z,20
2018-05-06T17:43:30.668Z,20
2018-05-06T17:44:32.082Z,20
2018-05-06T17:45:33.434Z,20
2018-05-06T17:46:34.830Z,20
2018-05-06T17:47:36.226Z,20
2018-05-06T17:48:37.630Z,20
2018-05-06T17:49:39.014Z,20
2018-05-06T17:50:40.397Z,20
2018-05-06T17:51:41.801Z,15
2018-05-06T17:52:43.204Z,15
2018-05-06T17:53:44.561Z,15
2018-05-06T17:54:45.957Z,15
2018-05-06T17:55:47.375Z,15
2018-05-06T17:56:48.767Z,15
2018-05-06T17:57:50.157Z,15
2018-05-06T17:58:51.556Z,15
2018-05-06T17:59:52.945Z,15
2018-05-06T18:00:54.341Z,15
2018-05-06T18:01:55.685Z,15
2018-05-06T18:02:57.094Z,15
2018-05-06T18:03:58.478Z,15
2018-05-06T18:04:59.884Z,15
2018-05-06T18:06:01.275Z,15
2018-05-06T18:07:02.663Z,10
2018-05-06T18:08:04.067Z,10
2018-05-06T18:09:05.474Z,10
2018-05-06T18:10:06.833Z,10
2018-05-06T18:11:08.223Z,10
2018-05-06T18:12:09.570Z,10
2018-05-06T18:13:10.991Z,10
2018-05-06T18:14:12.341Z,10
2018-05-06T18:15:13.748Z,10
2018-05-06T18:16:15.174Z,10
2018-05-06T18:17:16.613Z,10
2018-05-06T18:18:18.048Z,10
2018-05-06T18:19:19.448Z,10
2018-05-06T18:20:20.853Z,10
2018-05-06T18:21:22.268Z,5
2018-05-06T18:22:23.664Z,5
2018-05-06T18:23:25.054Z,5
2018-05-06T18:24:26.455Z,5
2018-05-06T18:25:27.846Z,5
2018-05-06T18:26:29.206Z,5
2018-05-06T18:27:30.559Z,5
2018-05-06T18:28:32.803Z,5
2018-05-06T18:29:34.172Z,5
2018-05-06T18:30:35.581Z,5
2018-05-06T18:31:36.977Z,5
2018-05-06T18:32:38.377Z,5
2018-05-06T18:33:40.671Z,5
2018-05-06T18:34:42.081Z,5
2018-05-06T18:35:43.467Z,5
2018-05-06T18:36:44.872Z,0
2018-05-06T18:37:46.262Z,0
2018-05-06T18:38:47.665Z,0
2018-05-06T18:39:49.061Z,0
2018-05-06T18:40:50.473Z,0
2018-05-06T18:41:51.867Z,0
2018-05-06T18:42:53.272Z,0
2018-05-06T18:43:54.668Z,0
2018-05-06T18:44:56.070Z,0
2018-05-06T18:45:57.461Z,0
2018-05-06T18:46:59.670Z,0
2018-05-06T18:48:00.982Z,0
2018-05-06T18:49:02.376Z,0
2018-05-06T18:50:03.764Z,0
2018-05-06T18:51:05.152Z,0
2018-05-06T18:52:06.552Z,0
2018-05-06T18:53:07.953Z,0
2018-05-06T18:54:09.357Z,0
2018-05-06T18:55:10.744Z,0
2018-05-06T18:56:12.138Z,0
2018-05-06T18:57:13.619Z,0
2018-05-06T18:58:14.941Z,0
2018-05-06T18:59:16.357Z,0
2018-05-06T19:00:17.742Z,0
2018-05-06T19:01:19.151Z,0
2018-05-06T19:02:20.529Z,0
2018-05-06T19:03:21.913Z,0
2018-05-06T19:04:23.299Z,0
2018-05-06T19:05:24.656Z,0
2018-05-06T19:06:26.016Z,0
2018-05-06T19:07:27.408Z,0
2018-05-06T19:08:28.809Z,0
2018-05-06T19:09:30.195Z,0
2018-05-06T19:10:31.582Z,0
2018-05-06T19:11:32.981Z,0
2018-05-06T19:12:34.367Z,0
2018-05-06T19:13:35.766Z,0
2018-05-06T19:14:37.152Z,0
2018-05-06T19:15:38.561Z,0
2018-05-06T19:16:39.939Z,0
2018-05-06T19:17:41.299Z,0
2018-05-06T19:18:42.753Z,0
2018-05-06T19:19:44.168Z,0
2018-05-06T19:20:45.558Z,0
2018-05-06T19:21:46.953Z,0
2018-05-06T19:22:48.311Z,0
2018-05-06T19:23:49.655Z,0
2018-05-06T19:24:51.041Z,0
2018-05-06T19:25:52.449Z,0
2018-05-06T19:26:53.839Z,0
2018-05-06T19:27:55.191Z,0
2018-05-06T19:28:56.581Z,0
2018-05-06T19:29:57.967Z,0
2018-05-06T19:30:59.357Z,0
2018-05-06T19:32:00.774Z,0
2018-05-06T19:33:02.167Z,0
2018-05-06T19:34:03.560Z,0
2018-05-06T19:35:04.947Z,0
2018-05-06T19:36:06.348Z,0
2018-05-06T19:37:07.734Z,0
2018-05-06T19:38:09.079Z,0
2018-05-06T19:39:10.487Z,0
2018-05-06T19:40:11.872Z,0
2018-05-06T19:41:13.252Z,0
2018-05-06T19:42:14.653Z,0
2018-05-06T19:43:16.044Z,0
2018-05-06T19:44:17.433Z,0
2018-05-06T19:45:18.833Z,0
2018-05-06T19:46:20.224Z,0
2018-05-06T19:47:21.610Z,0
2018-05-06T19:48:23.010Z,0
2018-05-06T19:49:24.397Z,0
2018-05-06T19:50:25.788Z,0
2018-05-06T19:51:27.852Z,0
2018-05-06T19:52:29.242Z,0
2018-05-06T19:53:30.635Z,0
2018-05-06T19:54:32.030Z,0
2018-05-06T19:55:33.414Z,0
2018-05-06T19:56:34.811Z,0
2018-05-06T19:57:36.193Z,0
2018-05-06T19:58:37.582Z,0
2018-05-06T19:59:38.934Z,0
2018-05-06T20:00:40.325Z,0
2018-05-06T20:01:41.726Z,0
2018-05-06T20:02:43.056Z,0
2018-05-06T20:03:44.439Z,0
2018-05-06T20:04:45.828Z,0
2018-05-06T20:05:47.223Z,0
2018-05-06T20:06:48.613Z,0
2018-05-06T20:07:49.961Z,0
2018-05-06T20:08:51.356Z,0
2018-05-06T20:09:52.752Z,0
2018-05-06T20:10:54.151Z,0
2018-05-06T20:11:55.555Z,0
2018-05-06T20:12:57.031Z,0
2018-05-06T20:13:59.152Z,0
2018-05-06T20:15:00.534Z,0
2018-05-06T20:16:01.922Z,0
2018-05-06T20:17:03.270Z,0
2018-05-06T20:18:04.607Z,0
2018-05-06T20:19:06.027Z,0
2018-05-06T20:20:07.417Z,0
2018-05-06T20:21:08.815Z,0
2018-05-06T20:22:10.201Z,0
2018-05-06T20:23:11.595Z,0
2018-05-06T20:24:12.987Z,0
2018-05-06T20:25:14.378Z,0
2018-05-06T20:26:15.812Z,0
2018-05-06T20:27:17.208Z,0
2018-05-06T20:28:18.605Z,0
2018-05-06T20:29:19.979Z,0
2018-05-06T20:30:21.371Z,0
2018-05-06T20:31:22.849Z,0
2018-05-06T20:32:24.162Z,0
2018-05-06T20:33:25.543Z,0
2018-05-06T20:34:26.925Z,0
2018-05-06T20:35:28.327Z,0
2018-05-06T20:36:29.711Z,0
2018-05-06T20:37:31.110Z,0
2018-05-06T20:38:32.804Z,0
2018-05-06T20:39:34.190Z,0
2018-05-06T20:40:35.574Z,0
2018-05-06T20:41:36.965Z,0
2018-05-06T20:42:38.352Z,0
2018-05-06T20:43:39.756Z,0
2018-05-06T20:44:41.136Z,0
2018-05-06T20:45:42.518Z,0
2018-05-06T20:46:43.912Z,0
2018-05-06T20:47:45.328Z,0
2018-05-06T20:48:46.746Z,0
2018-05-06T20:49:48.122Z,0
2018-05-06T20:50:49.508Z,0
2018-05-06T20:51:50.895Z,0
2018-05-06T20:52:52.292Z,0
2018-05-06T20:53:53.674Z,0
2018-05-06T20:54:55.069Z,0
2018-05-06T20:55:56.555Z,0
2018-05-06T20:56:57.949Z,0
2018-05-06T20:57:59.332Z,0
2018-05-06T20:59:00.722Z,0
2018-05-06T21:00:02.111Z,0
2018-05-06T21:01:03.490Z,0
2018-05-06T21:02:04.875Z,0
2018-05-06T21:03:06.264Z,0
2018-05-06T21:04:07.647Z,0
2018-05-06T21:05:09.071Z,0
2018-05-06T21:06:10.430Z,0
2018-05-06T21:07:11.806Z,0
2018-05-06T21:08:13.192Z,0
2018-05-06T21:09:14.577Z,0
2018-05-06T21:10:15.973Z,0
2018-05-06T21:11:17.360Z,0
2018-05-06T21:12:18.751Z,0
2018-05-06T21:13:20.132Z,0
2018-05-06T21:14:21.527Z,0
2018-05-06T21:15:22.920Z,0
2018-05-06T21:16:24.307Z,0
2018-05-06T21:17:25.690Z,0
2018-05-06T21:18:27.128Z,0
2018-05-06T21:19:28.525Z,0
2018-05-06T21:20:29.906Z,0
2018-05-06T21:21:31.356Z,0
2018-05-06T21:22:32.748Z,0
2018-05-06T21:23:34.164Z,0
2018-05-06T21:24:35.563Z,0
2018-05-06T21:25:36.955Z,0
2018-05-06T21:26:38.339Z,0
2018-05-06T21:27:39.834Z,0
2018-05-06T21:28:41.090Z,0
2018-05-06T21:29:42.485Z,0
2018-05-06T21:30:43.873Z,0
2018-05-06T21:31:45.263Z,0
2018-05-06T21:32:46.683Z,0
2018-05-06T21:33:48.074Z,0
2018-05-06T21:34:49.461Z,0
2018-05-06T21:35:50.877Z,0
2018-05-06T21:36:52.281Z,0
2018-05-06T21:37:53.673Z,0
2018-05-06T21:38:55.055Z,0
2018-05-06T21:39:56.442Z,0
2018-05-06T21:40:57.856Z,0
2018-05-06T21:41:59.256Z,0
2018-05-06T21:43:00.658Z,0
2018-05-06T21:44:02.059Z,0
2018-05-06T21:45:03.442Z,0
2018-05-06T21:46:04.841Z,0
2018-05-06T21:47:06.213Z,0
2018-05-06T21:48:08.568Z,0
2018-05-06T21:49:09.953Z,0
2018-05-06T21:50:11.359Z,0
2018-05-06T21:51:12.736Z,0
2018-05-06T21:52:14.131Z,0
2018-05-06T21:53:15.507Z,0
2018-05-06T21:54:16.897Z,0
2018-05-06T21:55:18.289Z,0
2018-05-06T21:56:19.675Z,0
2018-05-06T21:57:21.054Z,0
2018-05-06T21:58:22.444Z,0
2018-05-06T21:59:23.836Z,0
2018-05-06T22:00:25.251Z,0
2018-05-06T22:01:26.652Z,0
2018-05-06T22:02:28.045Z,0
2018-05-06T22:03:29.496Z,0
2018-05-06T22:04:30.839Z,0
2018-05-06T22:05:32.238Z,0
2018-05-06T22:06:33.639Z,0
2018-05-06T22:07:35.096Z,0
2018-05-06T22:08:36.440Z,0
2018-05-06T22:09:37.833Z,0
2018-05-06T22:10:39.261Z,0
2018-05-06T22:11:40.663Z,0
2018-05-06T22:12:42.075Z,0
2018-05-06T22:13:43.473Z,0
2018-05-06T22:14:44.878Z,0